CheckWX is a tool to help pilots better visualize weather data.  It is not intended as a substitute for an official pre-flight weather briefing.

17:05:19 UTC

SEGU TAF
José Joaquín de Olmedo International Airport
Guayaquil, Ecuador
SEGU 180910Z 1812/1912 24005KT 9999 BKN020 BKN090 BECMG 1817/1818 14006KT BECMG 1821/1822 FEW020 FM190000 21010KT CAVOK BECMG 1908/1909 BKN020 BKN090 TX30/1819Z TN23/1911Z

Jun-18@
12:00 UTC

Jun-18 @ 12:00 UTC

Jun-18@
17:00 UTC

Jun-18 @ 17:00 UTC

SEGU 180910Z 1812/1912 24005KT 9999 BKN020 BKN090

Expired

Wind
  • 240° at 5 KTS
Cloud Levels
  • Broken at 2,000' AGL
  • Broken at 9,000' AGL

Jun-18@
17:00 UTC

Jun-18 @ 17:00 UTC

Jun-18@
21:00 UTC

Jun-18 @ 21:00 UTC

BECMG 1817/1818 14006KT

Becoming

Becoming Conditions expected by Tue, Jun 18, 2019 @ 18:00 UTC

Wind
  • 140° at 6 KTS
Cloud Levels
  • Broken at 2,000' AGL
  • Broken at 9,000' AGL

Jun-18@
21:00 UTC

Jun-18 @ 21:00 UTC

Jun-19@
00:00 UTC

Jun-19 @ 00:00 UTC

BECMG 1821/1822 FEW020

Becoming

Becoming Conditions expected by Tue, Jun 18, 2019 @ 22:00 UTC

Wind
  • 140° at 6 KTS
Cloud Levels
  • Few at 2,000' AGL

Jun-19@
00:00 UTC

Jun-19 @ 00:00 UTC

Jun-19@
08:00 UTC

Jun-19 @ 08:00 UTC

FM190000 21010KT CAVOK

From

From Standard forecast or significant change

Wind
  • 210° at 10 KTS
Conditions
No significant weather
Cloud Levels
  • No significant clouds

Jun-19@
08:00 UTC

Jun-19 @ 08:00 UTC

Jun-19@
12:00 UTC

Jun-19 @ 12:00 UTC

BECMG 1908/1909 BKN020 BKN090 TX30/1819Z TN23/1911Z

Becoming

Becoming Conditions expected by Wed, Jun 19, 2019 @ 09:00 UTC

Wind
  • 210° at 10 KTS
Conditions
No significant weather
Cloud Levels
  • Broken at 2,000' AGL
  • Broken at 9,000' AGL